sensor_id;sensor_type;location;lat;lon;timestamp;pressure;altitude;pressure_sealevel;temperature;humidity
77013;BME280;67260;53.130;17.982;2023-05-16T00:01:26;99999.02;;;11.62;89.28
77013;BME280;67260;53.130;17.982;2023-05-16T00:03:55;100001.38;;;11.63;89.38
77013;BME280;67260;53.130;17.982;2023-05-16T00:06:23;99999.66;;;11.62;89.29
77013;BME280;67260;53.130;17.982;2023-05-16T00:08:49;99999.52;;;11.63;89.21
77013;BME280;67260;53.130;17.982;2023-05-16T00:11:18;99998.83;;;11.63;89.03
77013;BME280;67260;53.130;17.982;2023-05-16T00:13:44;100003.17;;;11.62;89.00
77013;BME280;67260;53.130;17.982;2023-05-16T00:16:12;100003.63;;;11.61;89.03
77013;BME280;67260;53.130;17.982;2023-05-16T00:18:42;100007.09;;;11.59;89.03
77013;BME280;67260;53.130;17.982;2023-05-16T00:21:13;100006.26;;;11.58;89.17
77013;BME280;67260;53.130;17.982;2023-05-16T00:23:44;100006.71;;;11.52;88.96
77013;BME280;67260;53.130;17.982;2023-05-16T00:26:10;100007.73;;;11.50;89.07
77013;BME280;67260;53.130;17.982;2023-05-16T00:28:38;100006.45;;;11.48;89.03
77013;BME280;67260;53.130;17.982;2023-05-16T00:31:07;100009.23;;;11.48;89.01
77013;BME280;67260;53.130;17.982;2023-05-16T00:33:33;100010.29;;;11.46;88.91
77013;BME280;67260;53.130;17.982;2023-05-16T00:35:59;100012.38;;;11.44;88.94
77013;BME280;67260;53.130;17.982;2023-05-16T00:38:25;100017.70;;;11.44;88.84
77013;BME280;67260;53.130;17.982;2023-05-16T00:40:52;100017.30;;;11.42;88.87
77013;BME280;67260;53.130;17.982;2023-05-16T00:43:25;100018.64;;;11.40;88.89
77013;BME280;67260;53.130;17.982;2023-05-16T00:45:52;100022.02;;;11.39;88.64
77013;BME280;67260;53.130;17.982;2023-05-16T00:48:18;100019.93;;;11.41;88.80
77013;BME280;67260;53.130;17.982;2023-05-16T00:50:50;100023.89;;;11.42;88.66
77013;BME280;67260;53.130;17.982;2023-05-16T00:53:24;100022.41;;;11.40;88.37
77013;BME280;67260;53.130;17.982;2023-05-16T00:55:55;100024.84;;;11.39;88.47
77013;BME280;67260;53.130;17.982;2023-05-16T00:58:23;100025.52;;;11.38;88.38
77013;BME280;67260;53.130;17.982;2023-05-16T01:00:51;100032.53;;;11.36;88.39
77013;BME280;67260;53.130;17.982;2023-05-16T01:03:18;100031.86;;;11.37;88.34
77013;BME280;67260;53.130;17.982;2023-05-16T01:05:48;100034.69;;;11.37;88.28
77013;BME280;67260;53.130;17.982;2023-05-16T01:08:14;100037.05;;;11.38;88.00
77013;BME280;67260;53.130;17.982;2023-05-16T01:11:01;100036.81;;;11.37;87.93
77013;BME280;67260;53.130;17.982;2023-05-16T01:13:54;100037.53;;;11.38;88.03
77013;BME280;67260;53.130;17.982;2023-05-16T01:22:28;100039.34;;;11.40;87.64
77013;BME280;67260;53.130;17.982;2023-05-16T01:27:31;100044.51;;;11.34;87.64
77013;BME280;67260;53.130;17.982;2023-05-16T01:30:17;100049.52;;;11.33;87.90
77013;BME280;67260;53.130;17.982;2023-05-16T01:32:50;100047.90;;;11.32;87.98
77013;BME280;67260;53.130;17.982;2023-05-16T01:35:17;100053.13;;;11.32;88.05
77013;BME280;67260;53.130;17.982;2023-05-16T01:43:43;100058.98;;;11.32;88.07
77013;BME280;67260;53.130;17.982;2023-05-16T01:46:18;100060.70;;;11.32;87.90
77013;BME280;67260;53.130;17.982;2023-05-16T01:51:44;100064.48;;;11.34;87.97
77013;BME280;67260;53.130;17.982;2023-05-16T01:54:19;100066.77;;;11.34;87.68
77013;BME280;67260;53.130;17.982;2023-05-16T01:56:51;100065.43;;;11.33;87.59
77013;BME280;67260;53.130;17.982;2023-05-16T01:59:22;100064.62;;;11.33;87.62
77013;BME280;67260;53.130;17.982;2023-05-16T02:01:48;100065.36;;;11.33;87.49
77013;BME280;67260;53.130;17.982;2023-05-16T02:04:17;100067.54;;;11.34;87.76
77013;BME280;67260;53.130;17.982;2023-05-16T02:06:44;100072.42;;;11.39;87.73
77013;BME280;67260;53.130;17.982;2023-05-16T02:09:15;100073.15;;;11.40;87.66
77013;BME280;67260;53.130;17.982;2023-05-16T02:11:41;100078.36;;;11.41;87.56
77013;BME280;67260;53.130;17.982;2023-05-16T02:14:08;100079.77;;;11.40;87.42
77013;BME280;67260;53.130;17.982;2023-05-16T02:16:47;100090.48;;;11.37;87.36
77013;BME280;67260;53.130;17.982;2023-05-16T02:19:22;100092.01;;;11.37;87.64
77013;BME280;67260;53.130;17.982;2023-05-16T02:21:49;100097.06;;;11.41;87.78
77013;BME280;67260;53.130;17.982;2023-05-16T02:24:18;100099.38;;;11.42;87.25
77013;BME280;67260;53.130;17.982;2023-05-16T02:26:50;100102.34;;;11.35;86.99
77013;BME280;67260;53.130;17.982;2023-05-16T02:29:16;100110.39;;;11.32;87.12
77013;BME280;67260;53.130;17.982;2023-05-16T02:31:42;100115.23;;;11.30;86.84
77013;BME280;67260;53.130;17.982;2023-05-16T02:34:08;100115.05;;;11.27;86.52
77013;BME280;67260;53.130;17.982;2023-05-16T02:36:34;100123.55;;;11.25;86.55
77013;BME280;67260;53.130;17.982;2023-05-16T02:39:01;100126.95;;;11.25;86.69
77013;BME280;67260;53.130;17.982;2023-05-16T02:41:29;100129.95;;;11.27;86.71
77013;BME280;67260;53.130;17.982;2023-05-16T02:43:55;100135.30;;;11.31;86.56
77013;BME280;67260;53.130;17.982;2023-05-16T02:46:21;100140.30;;;11.30;86.47
77013;BME280;67260;53.130;17.982;2023-05-16T02:48:49;100137.58;;;11.29;86.54
77013;BME280;67260;53.130;17.982;2023-05-16T02:51:18;100141.06;;;11.28;86.55
77013;BME280;67260;53.130;17.982;2023-05-16T02:53:45;100141.19;;;11.28;86.39
77013;BME280;67260;53.130;17.982;2023-05-16T02:56:11;100141.40;;;11.30;86.44
77013;BME280;67260;53.130;17.982;2023-05-16T02:58:39;100147.29;;;11.33;86.40
77013;BME280;67260;53.130;17.982;2023-05-16T03:01:05;100149.48;;;11.35;86.28
77013;BME280;67260;53.130;17.982;2023-05-16T03:03:32;100154.74;;;11.36;86.15
77013;BME280;67260;53.130;17.982;2023-05-16T03:06:02;100159.25;;;11.35;86.25
77013;BME280;67260;53.130;17.982;2023-05-16T03:08:29;100161.42;;;11.33;85.97
77013;BME280;67260;53.130;17.982;2023-05-16T03:10:55;100162.95;;;11.31;85.89
77013;BME280;67260;53.130;17.982;2023-05-16T03:13:21;100166.61;;;11.32;86.14
77013;BME280;67260;53.130;17.982;2023-05-16T03:15:47;100169.94;;;11.35;86.04
77013;BME280;67260;53.130;17.982;2023-05-16T03:18:14;100170.67;;;11.35;85.77
77013;BME280;67260;53.130;17.982;2023-05-16T03:20:42;100177.97;;;11.33;85.94
77013;BME280;67260;53.130;17.982;2023-05-16T03:23:08;100184.37;;;11.32;85.76
77013;BME280;67260;53.130;17.982;2023-05-16T03:25:36;100188.61;;;11.30;85.62
77013;BME280;67260;53.130;17.982;2023-05-16T03:28:05;100192.15;;;11.29;85.52
77013;BME280;67260;53.130;17.982;2023-05-16T03:30:33;100194.13;;;11.27;85.65
77013;BME280;67260;53.130;17.982;2023-05-16T03:32:59;100196.48;;;11.29;85.84
77013;BME280;67260;53.130;17.982;2023-05-16T03:35:26;100195.13;;;11.29;85.61
77013;BME280;67260;53.130;17.982;2023-05-16T03:37:53;100198.91;;;11.31;85.79
77013;BME280;67260;53.130;17.982;2023-05-16T03:40:19;100197.70;;;11.33;85.87
77013;BME280;67260;53.130;17.982;2023-05-16T03:42:46;100199.67;;;11.39;86.00
77013;BME280;67260;53.130;17.982;2023-05-16T03:45:12;100202.90;;;11.45;85.46
77013;BME280;67260;53.130;17.982;2023-05-16T03:47:38;100207.95;;;11.47;85.23
77013;BME280;67260;53.130;17.982;2023-05-16T03:50:05;100211.88;;;11.51;85.45
77013;BME280;67260;53.130;17.982;2023-05-16T03:52:33;100213.70;;;11.52;84.96
77013;BME280;67260;53.130;17.982;2023-05-16T03:54:59;100217.70;;;11.53;85.18
77013;BME280;67260;53.130;17.982;2023-05-16T03:57:26;100219.86;;;11.57;85.21
77013;BME280;67260;53.130;17.982;2023-05-16T03:59:52;100222.96;;;11.58;84.76
77013;BME280;67260;53.130;17.982;2023-05-16T04:02:18;100222.97;;;11.60;84.85
77013;BME280;67260;53.130;17.982;2023-05-16T04:04:44;100219.55;;;11.81;84.59
77013;BME280;67260;53.130;17.982;2023-05-16T04:07:10;100219.95;;;12.38;83.60
77013;BME280;67260;53.130;17.982;2023-05-16T04:09:36;100217.46;;;13.42;81.05
77013;BME280;67260;53.130;17.982;2023-05-16T04:12:03;100225.27;;;13.37;80.21
77013;BME280;67260;53.130;17.982;2023-05-16T04:14:29;100238.20;;;13.00;79.84
77013;BME280;67260;53.130;17.982;2023-05-16T04:16:55;100246.17;;;12.73;81.12
77013;BME280;67260;53.130;17.982;2023-05-16T04:19:21;100250.52;;;12.60;82.13
77013;BME280;67260;53.130;17.982;2023-05-16T04:21:47;100254.07;;;12.57;82.05
77013;BME280;67260;53.130;17.982;2023-05-16T04:24:13;100254.17;;;12.55;82.15
77013;BME280;67260;53.130;17.982;2023-05-16T04:26:39;100252.80;;;12.57;82.20
77013;BME280;67260;53.130;17.982;2023-05-16T04:29:05;100260.26;;;12.57;81.13
77013;BME280;67260;53.130;17.982;2023-05-16T04:31:31;100266.47;;;12.49;81.57
77013;BME280;67260;53.130;17.982;2023-05-16T04:33:58;100279.19;;;12.44;81.47
77013;BME280;67260;53.130;17.982;2023-05-16T04:36:24;100286.48;;;12.41;81.85
77013;BME280;67260;53.130;17.982;2023-05-16T04:38:50;100293.92;;;12.38;82.13
77013;BME280;67260;53.130;17.982;2023-05-16T04:41:16;100297.89;;;12.41;82.37
77013;BME280;67260;53.130;17.982;2023-05-16T04:43:43;100302.75;;;12.44;82.10
77013;BME280;67260;53.130;17.982;2023-05-16T04:46:09;100307.49;;;12.39;82.39
77013;BME280;67260;53.130;17.982;2023-05-16T04:48:35;100312.37;;;12.42;82.07
77013;BME280;67260;53.130;17.982;2023-05-16T04:51:01;100310.47;;;12.46;81.53
77013;BME280;67260;53.130;17.982;2023-05-16T04:53:27;100307.56;;;12.50;81.57
77013;BME280;67260;53.130;17.982;2023-05-16T04:55:53;100316.80;;;12.62;81.65
77013;BME280;67260;53.130;17.982;2023-05-16T04:58:20;100319.52;;;12.66;81.20
77013;BME280;67260;53.130;17.982;2023-05-16T05:00:51;100322.79;;;12.69;80.79
77013;BME280;67260;53.130;17.982;2023-05-16T05:03:20;100326.46;;;12.82;80.56
77013;BME280;67260;53.130;17.982;2023-05-16T05:05:46;100326.64;;;13.55;79.00
77013;BME280;67260;53.130;17.982;2023-05-16T05:08:13;100328.30;;;14.23;76.80
77013;BME280;67260;53.130;17.982;2023-05-16T05:10:39;100337.08;;;14.40;76.73
77013;BME280;67260;53.130;17.982;2023-05-16T05:13:05;100345.55;;;14.60;74.34
77013;BME280;67260;53.130;17.982;2023-05-16T05:15:32;100353.81;;;14.66;75.23
77013;BME280;67260;53.130;17.982;2023-05-16T05:17:59;100357.77;;;14.38;76.59
77013;BME280;67260;53.130;17.982;2023-05-16T05:20:25;100370.23;;;14.15;76.10
77013;BME280;67260;53.130;17.982;2023-05-16T05:22:51;100370.99;;;14.02;75.97
77013;BME280;67260;53.130;17.982;2023-05-16T05:25:18;100381.41;;;13.89;74.89
77013;BME280;67260;53.130;17.982;2023-05-16T05:27:44;100385.62;;;14.10;75.36
77013;BME280;67260;53.130;17.982;2023-05-16T05:30:10;100386.73;;;14.54;73.63
77013;BME280;67260;53.130;17.982;2023-05-16T05:32:36;100389.44;;;14.61;72.76
77013;BME280;67260;53.130;17.982;2023-05-16T05:35:02;100388.43;;;14.58;73.63
77013;BME280;67260;53.130;17.982;2023-05-16T05:37:29;100394.52;;;14.67;73.37
77013;BME280;67260;53.130;17.982;2023-05-16T05:39:55;100398.31;;;14.83;72.93
77013;BME280;67260;53.130;17.982;2023-05-16T05:42:21;100403.09;;;14.93;73.73
77013;BME280;67260;53.130;17.982;2023-05-16T05:44:47;100409.27;;;14.85;73.71
77013;BME280;67260;53.130;17.982;2023-05-16T05:47:14;100409.94;;;14.71;74.59
77013;BME280;67260;53.130;17.982;2023-05-16T05:49:42;100412.44;;;14.51;73.32
77013;BME280;67260;53.130;17.982;2023-05-16T05:52:08;100415.92;;;14.41;74.13
77013;BME280;67260;53.130;17.982;2023-05-16T05:54:34;100416.59;;;14.54;74.42
77013;BME280;67260;53.130;17.982;2023-05-16T05:57:00;100414.89;;;14.70;72.92
77013;BME280;67260;53.130;17.982;2023-05-16T05:59:26;100419.63;;;14.94;73.10
77013;BME280;67260;53.130;17.982;2023-05-16T06:01:52;100424.98;;;15.38;73.50
77013;BME280;67260;53.130;17.982;2023-05-16T06:04:19;100428.08;;;15.48;71.60
77013;BME280;67260;53.130;17.982;2023-05-16T06:06:45;100424.23;;;15.57;71.58
77013;BME280;67260;53.130;17.982;2023-05-16T06:09:11;100421.45;;;17.18;67.93
77013;BME280;67260;53.130;17.982;2023-05-16T06:11:38;100421.63;;;17.05;67.75
77013;BME280;67260;53.130;17.982;2023-05-16T06:14:05;100421.46;;;16.97;67.89
77013;BME280;67260;53.130;17.982;2023-05-16T06:16:31;100429.95;;;17.05;68.13
77013;BME280;67260;53.130;17.982;2023-05-16T06:18:57;100433.18;;;17.13;67.47
77013;BME280;67260;53.130;17.982;2023-05-16T06:21:23;100431.65;;;16.96;66.93
77013;BME280;67260;53.130;17.982;2023-05-16T06:23:49;100437.65;;;17.01;65.67
77013;BME280;67260;53.130;17.982;2023-05-16T06:26:15;100442.51;;;16.75;66.76
77013;BME280;67260;53.130;17.982;2023-05-16T06:28:41;100441.52;;;16.45;66.29
77013;BME280;67260;53.130;17.982;2023-05-16T06:31:09;100452.03;;;16.05;66.56
77013;BME280;67260;53.130;17.982;2023-05-16T06:33:35;100456.33;;;15.66;68.03
77013;BME280;67260;53.130;17.982;2023-05-16T06:36:01;100464.70;;;15.38;69.05
77013;BME280;67260;53.130;17.982;2023-05-16T06:38:27;100471.17;;;15.11;68.90
77013;BME280;67260;53.130;17.982;2023-05-16T06:40:53;100482.91;;;14.84;69.91
77013;BME280;67260;53.130;17.982;2023-05-16T06:43:19;100486.71;;;14.64;70.26
77013;BME280;67260;53.130;17.982;2023-05-16T06:45:45;100489.36;;;14.50;70.17
77013;BME280;67260;53.130;17.982;2023-05-16T06:48:13;100492.05;;;14.37;70.27
77013;BME280;67260;53.130;17.982;2023-05-16T06:50:40;100497.48;;;14.25;71.17
77013;BME280;67260;53.130;17.982;2023-05-16T06:53:06;100497.34;;;14.16;71.43
77013;BME280;67260;53.130;17.982;2023-05-16T06:55:33;100505.48;;;14.06;71.91
77013;BME280;67260;53.130;17.982;2023-05-16T06:57:59;100514.20;;;14.04;72.37
77013;BME280;67260;53.130;17.982;2023-05-16T07:00:26;100516.91;;;14.09;71.91
77013;BME280;67260;53.130;17.982;2023-05-16T07:02:51;100522.79;;;14.09;72.07
77013;BME280;67260;53.130;17.982;2023-05-16T07:05:18;100532.23;;;14.18;72.12
77013;BME280;67260;53.130;17.982;2023-05-16T07:07:44;100534.85;;;14.35;71.39
77013;BME280;67260;53.130;17.982;2023-05-16T07:10:10;100542.38;;;14.62;71.10
77013;BME280;67260;53.130;17.982;2023-05-16T07:12:36;100545.49;;;14.93;70.41
77013;BME280;67260;53.130;17.982;2023-05-16T07:15:04;100549.89;;;15.21;69.96
77013;BME280;67260;53.130;17.982;2023-05-16T07:17:31;100554.95;;;15.34;69.36
77013;BME280;67260;53.130;17.982;2023-05-16T07:19:57;100558.66;;;15.26;69.70
77013;BME280;67260;53.130;17.982;2023-05-16T07:22:24;100560.86;;;15.20;69.82
77013;BME280;67260;53.130;17.982;2023-05-16T07:24:50;100561.02;;;15.10;69.84
77013;BME280;67260;53.130;17.982;2023-05-16T07:27:18;100563.30;;;15.04;69.92
77013;BME280;67260;53.130;17.982;2023-05-16T07:29:44;100568.50;;;15.10;69.68
77013;BME280;67260;53.130;17.982;2023-05-16T07:32:10;100576.10;;;15.05;69.36
77013;BME280;67260;53.130;17.982;2023-05-16T07:34:36;100582.52;;;14.96;69.94
77013;BME280;67260;53.130;17.982;2023-05-16T07:37:03;100591.79;;;14.94;69.96
77013;BME280;67260;53.130;17.982;2023-05-16T07:39:30;100594.23;;;14.98;70.26
77013;BME280;67260;53.130;17.982;2023-05-16T07:41:56;100594.22;;;15.27;69.91
77013;BME280;67260;53.130;17.982;2023-05-16T07:44:23;100598.23;;;16.09;68.65
77013;BME280;67260;53.130;17.982;2023-05-16T07:46:49;100602.61;;;17.09;65.75
77013;BME280;67260;53.130;17.982;2023-05-16T07:49:15;100613.26;;;18.36;63.33
77013;BME280;67260;53.130;17.982;2023-05-16T07:51:42;100619.40;;;19.08;61.81
77013;BME280;67260;53.130;17.982;2023-05-16T07:54:08;100627.50;;;19.00;59.29
77013;BME280;67260;53.130;17.982;2023-05-16T07:56:34;100639.55;;;19.13;60.08
77013;BME280;67260;53.130;17.982;2023-05-16T07:59:00;100646.09;;;19.16;60.28
77013;BME280;67260;53.130;17.982;2023-05-16T08:01:26;100651.73;;;19.11;59.00
77013;BME280;67260;53.130;17.982;2023-05-16T08:03:52;100652.58;;;18.70;57.88
77013;BME280;67260;53.130;17.982;2023-05-16T08:06:18;100656.09;;;18.18;59.10
77013;BME280;67260;53.130;17.982;2023-05-16T08:08:45;100659.61;;;17.69;59.81
77013;BME280;67260;53.130;17.982;2023-05-16T08:11:11;100665.95;;;17.21;60.44
77013;BME280;67260;53.130;17.982;2023-05-16T08:13:37;100660.77;;;16.92;61.35
77013;BME280;67260;53.130;17.982;2023-05-16T08:16:03;100664.66;;;16.97;61.41
77013;BME280;67260;53.130;17.982;2023-05-16T08:18:29;100667.31;;;16.96;62.20
77013;BME280;67260;53.130;17.982;2023-05-16T08:20:55;100663.83;;;17.09;62.09
77013;BME280;67260;53.130;17.982;2023-05-16T08:23:22;100661.23;;;17.27;62.07
77013;BME280;67260;53.130;17.982;2023-05-16T08:25:48;100654.89;;;17.42;61.69
77013;BME280;67260;53.130;17.982;2023-05-16T08:28:15;100659.73;;;17.37;61.13
77013;BME280;67260;53.130;17.982;2023-05-16T08:30:41;100662.88;;;17.19;61.16
77013;BME280;67260;53.130;17.982;2023-05-16T08:33:07;100653.28;;;17.54;59.31
77013;BME280;67260;53.130;17.982;2023-05-16T08:35:34;100651.43;;;18.72;58.73
77013;BME280;67260;53.130;17.982;2023-05-16T08:38:03;100653.07;;;19.34;56.88
77013;BME280;67260;53.130;17.982;2023-05-16T08:40:29;100655.63;;;19.79;56.46
77013;BME280;67260;53.130;17.982;2023-05-16T08:43:03;100652.25;;;21.46;54.67
77013;BME280;67260;53.130;17.982;2023-05-16T08:45:36;100655.22;;;24.53;49.81
77013;BME280;67260;53.130;17.982;2023-05-16T08:48:03;100650.00;;;26.06;46.32
77013;BME280;67260;53.130;17.982;2023-05-16T08:50:31;100656.06;;;26.66;46.18
77013;BME280;67260;53.130;17.982;2023-05-16T08:52:57;100653.02;;;27.64;41.21
77013;BME280;67260;53.130;17.982;2023-05-16T08:55:30;100647.86;;;28.42;41.29
77013;BME280;67260;53.130;17.982;2023-05-16T08:57:56;100644.04;;;29.13;39.96
77013;BME280;67260;53.130;17.982;2023-05-16T09:00:26;100647.85;;;28.38;38.36
77013;BME280;67260;53.130;17.982;2023-05-16T09:02:56;100649.97;;;27.57;39.10
77013;BME280;67260;53.130;17.982;2023-05-16T09:05:26;100650.78;;;26.19;38.22
77013;BME280;67260;53.130;17.982;2023-05-16T09:07:53;100659.85;;;24.90;40.93
77013;BME280;67260;53.130;17.982;2023-05-16T09:10:19;100658.48;;;24.65;41.20
77013;BME280;67260;53.130;17.982;2023-05-16T09:12:46;100659.41;;;25.60;39.88
77013;BME280;67260;53.130;17.982;2023-05-16T09:15:12;100649.94;;;27.25;36.63
77013;BME280;67260;53.130;17.982;2023-05-16T09:17:42;100645.05;;;28.82;34.38
77013;BME280;67260;53.130;17.982;2023-05-16T09:20:10;100632.58;;;28.93;34.10
77013;BME280;67260;53.130;17.982;2023-05-16T09:22:39;100633.45;;;28.48;35.18
77013;BME280;67260;53.130;17.982;2023-05-16T09:25:07;100635.43;;;28.72;35.26
77013;BME280;67260;53.130;17.982;2023-05-16T09:27:36;100633.77;;;30.15;33.71
77013;BME280;67260;53.130;17.982;2023-05-16T09:30:04;100636.72;;;31.27;31.82
77013;BME280;67260;53.130;17.982;2023-05-16T09:32:31;100637.20;;;32.64;31.26
77013;BME280;67260;53.130;17.982;2023-05-16T09:34:57;100634.91;;;34.09;29.22
77013;BME280;67260;53.130;17.982;2023-05-16T09:37:23;100644.95;;;34.26;29.13
77013;BME280;67260;53.130;17.982;2023-05-16T09:39:51;100648.70;;;33.40;28.88
77013;BME280;67260;53.130;17.982;2023-05-16T09:42:19;100654.90;;;33.54;28.47
77013;BME280;67260;53.130;17.982;2023-05-16T09:44:48;100654.98;;;33.71;26.89
77013;BME280;67260;53.130;17.982;2023-05-16T09:47:16;100659.38;;;32.61;27.86
77013;BME280;67260;53.130;17.982;2023-05-16T09:49:46;100656.73;;;33.24;27.70
77013;BME280;67260;53.130;17.982;2023-05-16T09:52:13;100653.04;;;34.22;26.34
77013;BME280;67260;53.130;17.982;2023-05-16T09:54:41;100660.21;;;33.49;25.71
77013;BME280;67260;53.130;17.982;2023-05-16T09:57:07;100671.48;;;32.45;26.46
77013;BME280;67260;53.130;17.982;2023-05-16T09:59:37;100675.41;;;31.42;27.17
77013;BME280;67260;53.130;17.982;2023-05-16T10:02:06;100675.71;;;31.54;27.14
77013;BME280;67260;53.130;17.982;2023-05-16T10:04:33;100671.86;;;31.93;27.17
77013;BME280;67260;53.130;17.982;2023-05-16T10:07:04;100661.85;;;33.11;26.57
77013;BME280;67260;53.130;17.982;2023-05-16T10:09:32;100655.12;;;34.15;24.76
77013;BME280;67260;53.130;17.982;2023-05-16T10:12:04;100661.84;;;33.94;24.79
77013;BME280;67260;53.130;17.982;2023-05-16T10:14:36;100665.24;;;34.55;24.68
77013;BME280;67260;53.130;17.982;2023-05-16T10:17:05;100673.16;;;35.26;23.57
77013;BME280;67260;53.130;17.982;2023-05-16T10:19:37;100679.89;;;35.79;23.16
77013;BME280;67260;53.130;17.982;2023-05-16T10:22:05;100689.95;;;35.58;21.86
77013;BME280;67260;53.130;17.982;2023-05-16T10:24:57;100696.86;;;34.89;22.47
77013;BME280;67260;53.130;17.982;2023-05-16T10:27:26;100713.05;;;34.43;23.87
77013;BME280;67260;53.130;17.982;2023-05-16T10:29:53;100724.58;;;34.87;22.97
77013;BME280;67260;53.130;17.982;2023-05-16T10:32:22;100720.16;;;35.18;22.64
77013;BME280;67260;53.130;17.982;2023-05-16T10:34:48;100720.11;;;35.43;22.45
77013;BME280;67260;53.130;17.982;2023-05-16T10:37:14;100723.63;;;34.86;22.89
77013;BME280;67260;53.130;17.982;2023-05-16T10:39:41;100724.73;;;35.27;21.77
77013;BME280;67260;53.130;17.982;2023-05-16T10:42:08;100716.99;;;35.41;22.25
77013;BME280;67260;53.130;17.982;2023-05-16T10:44:37;100713.13;;;34.62;22.37
77013;BME280;67260;53.130;17.982;2023-05-16T10:47:04;100709.92;;;33.99;23.22
77013;BME280;67260;53.130;17.982;2023-05-16T10:49:31;100709.95;;;33.29;24.00
77013;BME280;67260;53.130;17.982;2023-05-16T10:52:09;100710.34;;;33.71;23.83
77013;BME280;67260;53.130;17.982;2023-05-16T10:54:40;100708.80;;;33.64;23.71
77013;BME280;67260;53.130;17.982;2023-05-16T10:57:15;100710.23;;;32.71;23.86
77013;BME280;67260;53.130;17.982;2023-05-16T10:59:47;100710.35;;;32.44;24.61
77013;BME280;67260;53.130;17.982;2023-05-16T11:02:39;100716.94;;;31.47;25.03
77013;BME280;67260;53.130;17.982;2023-05-16T11:05:07;100718.80;;;30.34;26.28
77013;BME280;67260;53.130;17.982;2023-05-16T11:07:37;100724.72;;;29.43;26.64
77013;BME280;67260;53.130;17.982;2023-05-16T11:12:45;100738.69;;;28.21;28.33
77013;BME280;67260;53.130;17.982;2023-05-16T11:15:26;100744.67;;;27.76;29.00
77013;BME280;67260;53.130;17.982;2023-05-16T11:18:04;100747.77;;;27.37;29.98
77013;BME280;67260;53.130;17.982;2023-05-16T11:20:33;100746.98;;;27.02;30.81
77013;BME280;67260;53.130;17.982;2023-05-16T11:25:45;100755.04;;;26.26;31.80
77013;BME280;67260;53.130;17.982;2023-05-16T11:28:12;100757.38;;;26.14;32.34
77013;BME280;67260;53.130;17.982;2023-05-16T11:30:49;100756.33;;;26.09;32.54
77013;BME280;67260;53.130;17.982;2023-05-16T11:33:17;100764.22;;;25.87;33.12
77013;BME280;67260;53.130;17.982;2023-05-16T11:35:59;100765.64;;;25.39;33.75
77013;BME280;67260;53.130;17.982;2023-05-16T11:38:30;100766.04;;;24.83;34.33
77013;BME280;67260;53.130;17.982;2023-05-16T11:41:04;100774.73;;;24.43;35.09
77013;BME280;67260;53.130;17.982;2023-05-16T11:43:42;100776.45;;;23.92;35.51
77013;BME280;67260;53.130;17.982;2023-05-16T11:46:13;100777.76;;;23.37;36.35
77013;BME280;67260;53.130;17.982;2023-05-16T11:48:39;100778.62;;;23.09;37.03
77013;BME280;67260;53.130;17.982;2023-05-16T11:51:06;100782.35;;;23.01;37.76
77013;BME280;67260;53.130;17.982;2023-05-16T11:53:32;100784.52;;;22.87;38.26
77013;BME280;67260;53.130;17.982;2023-05-16T11:55:59;100788.34;;;22.65;38.35
77013;BME280;67260;53.130;17.982;2023-05-16T11:58:27;100797.14;;;22.57;38.54
77013;BME280;67260;53.130;17.982;2023-05-16T12:00:53;100793.09;;;22.48;39.28
77013;BME280;67260;53.130;17.982;2023-05-16T12:03:20;100800.08;;;22.19;39.57
77013;BME280;67260;53.130;17.982;2023-05-16T12:05:53;100809.33;;;21.86;40.22
77013;BME280;67260;53.130;17.982;2023-05-16T12:08:20;100811.88;;;21.66;40.70
77013;BME280;67260;53.130;17.982;2023-05-16T12:10:52;100810.96;;;21.41;41.62
77013;BME280;67260;53.130;17.982;2023-05-16T12:13:20;100815.50;;;21.18;41.89
77013;BME280;67260;53.130;17.982;2023-05-16T12:15:48;100820.23;;;21.05;41.93
77013;BME280;67260;53.130;17.982;2023-05-16T12:18:15;100823.40;;;21.07;42.12
77013;BME280;67260;53.130;17.982;2023-05-16T12:20:42;100824.63;;;21.15;42.31
77013;BME280;67260;53.130;17.982;2023-05-16T12:23:10;100829.99;;;21.08;42.37
77013;BME280;67260;53.130;17.982;2023-05-16T12:25:44;100830.63;;;20.88;42.69
77013;BME280;67260;53.130;17.982;2023-05-16T12:28:12;100834.88;;;20.79;42.99
77013;BME280;67260;53.130;17.982;2023-05-16T12:30:43;100833.96;;;20.75;43.46
77013;BME280;67260;53.130;17.982;2023-05-16T12:33:11;100832.29;;;20.77;43.63
77013;BME280;67260;53.130;17.982;2023-05-16T12:35:40;100834.40;;;20.86;43.77
77013;BME280;67260;53.130;17.982;2023-05-16T12:38:09;100834.67;;;20.92;43.55
77013;BME280;67260;53.130;17.982;2023-05-16T12:40:37;100834.39;;;20.99;43.19
77013;BME280;67260;53.130;17.982;2023-05-16T12:43:19;100831.88;;;21.20;42.98
77013;BME280;67260;53.130;17.982;2023-05-16T12:45:51;100828.58;;;21.43;42.62
77013;BME280;67260;53.130;17.982;2023-05-16T12:48:21;100825.58;;;21.62;42.09
77013;BME280;67260;53.130;17.982;2023-05-16T12:50:49;100830.23;;;21.72;42.15
77013;BME280;67260;53.130;17.982;2023-05-16T12:53:16;100833.08;;;21.84;41.54
77013;BME280;67260;53.130;17.982;2023-05-16T12:55:43;100833.63;;;21.77;42.09
77013;BME280;67260;53.130;17.982;2023-05-16T12:58:11;100839.52;;;21.62;42.11
77013;BME280;67260;53.130;17.982;2023-05-16T13:00:37;100843.64;;;21.27;42.54
77013;BME280;67260;53.130;17.982;2023-05-16T13:03:05;100850.58;;;21.08;43.00
77013;BME280;67260;53.130;17.982;2023-05-16T13:05:35;100851.87;;;20.83;44.19
77013;BME280;67260;53.130;17.982;2023-05-16T13:08:02;100848.15;;;20.46;45.47